sensor_id;sensor_type;location;lat;lon;timestamp;P1;durP1;ratioP1;P2;durP2;ratioP2
8556;SDS011;4316;53.840;10.762;2024-01-30T00:01:43;4.47;;;4.07;;
8556;SDS011;4316;53.840;10.762;2024-01-30T00:04:09;6.90;;;4.77;;
8556;SDS011;4316;53.840;10.762;2024-01-30T00:06:34;5.90;;;3.97;;
8556;SDS011;4316;53.840;10.762;2024-01-30T00:09:00;4.60;;;3.90;;
8556;SDS011;4316;53.840;10.762;2024-01-30T00:11:25;9.23;;;4.17;;
8556;SDS011;4316;53.840;10.762;2024-01-30T00:13:52;4.03;;;3.67;;
8556;SDS011;4316;53.840;10.762;2024-01-30T00:16:21;8.23;;;4.90;;
8556;SDS011;4316;53.840;10.762;2024-01-30T00:18:52;6.40;;;4.33;;
8556;SDS011;4316;53.840;10.762;2024-01-30T00:21:18;5.00;;;3.90;;
8556;SDS011;4316;53.840;10.762;2024-01-30T00:23:45;8.47;;;4.20;;
8556;SDS011;4316;53.840;10.762;2024-01-30T00:26:11;4.20;;;3.77;;
8556;SDS011;4316;53.840;10.762;2024-01-30T00:28:37;4.10;;;3.80;;
8556;SDS011;4316;53.840;10.762;2024-01-30T00:31:03;4.70;;;3.77;;
8556;SDS011;4316;53.840;10.762;2024-01-30T00:33:29;3.70;;;3.40;;
8556;SDS011;4316;53.840;10.762;2024-01-30T00:35:55;4.37;;;3.80;;
8556;SDS011;4316;53.840;10.762;2024-01-30T00:38:21;5.97;;;4.53;;
8556;SDS011;4316;53.840;10.762;2024-01-30T00:40:46;5.63;;;3.90;;
8556;SDS011;4316;53.840;10.762;2024-01-30T00:43:12;6.27;;;4.20;;
8556;SDS011;4316;53.840;10.762;2024-01-30T00:45:37;6.17;;;3.83;;
8556;SDS011;4316;53.840;10.762;2024-01-30T00:48:03;5.73;;;4.23;;
8556;SDS011;4316;53.840;10.762;2024-01-30T00:50:29;5.77;;;4.30;;
8556;SDS011;4316;53.840;10.762;2024-01-30T00:52:55;7.03;;;4.23;;
8556;SDS011;4316;53.840;10.762;2024-01-30T00:55:20;7.07;;;3.90;;
8556;SDS011;4316;53.840;10.762;2024-01-30T00:57:46;4.73;;;3.97;;
8556;SDS011;4316;53.840;10.762;2024-01-30T01:00:12;6.20;;;4.13;;
8556;SDS011;4316;53.840;10.762;2024-01-30T01:02:41;4.50;;;3.93;;
8556;SDS011;4316;53.840;10.762;2024-01-30T01:05:07;6.43;;;4.20;;
8556;SDS011;4316;53.840;10.762;2024-01-30T01:07:33;6.97;;;4.60;;
8556;SDS011;4316;53.840;10.762;2024-01-30T01:09:59;6.60;;;4.40;;
8556;SDS011;4316;53.840;10.762;2024-01-30T01:12:25;6.20;;;4.47;;
8556;SDS011;4316;53.840;10.762;2024-01-30T01:14:50;5.57;;;4.10;;
8556;SDS011;4316;53.840;10.762;2024-01-30T01:17:16;5.97;;;4.53;;
8556;SDS011;4316;53.840;10.762;2024-01-30T01:19:43;4.70;;;4.23;;
8556;SDS011;4316;53.840;10.762;2024-01-30T01:22:09;6.03;;;4.40;;
8556;SDS011;4316;53.840;10.762;2024-01-30T01:24:35;6.00;;;4.73;;
8556;SDS011;4316;53.840;10.762;2024-01-30T01:27:01;8.07;;;4.13;;
8556;SDS011;4316;53.840;10.762;2024-01-30T01:29:27;5.00;;;4.27;;
8556;SDS011;4316;53.840;10.762;2024-01-30T01:31:55;6.53;;;4.57;;
8556;SDS011;4316;53.840;10.762;2024-01-30T01:34:24;9.80;;;4.07;;
8556;SDS011;4316;53.840;10.762;2024-01-30T01:36:50;5.83;;;4.80;;
8556;SDS011;4316;53.840;10.762;2024-01-30T01:39:17;9.37;;;4.27;;
8556;SDS011;4316;53.840;10.762;2024-01-30T01:41:42;5.23;;;4.60;;
8556;SDS011;4316;53.840;10.762;2024-01-30T01:44:08;6.77;;;4.17;;
8556;SDS011;4316;53.840;10.762;2024-01-30T01:46:34;6.17;;;4.47;;
8556;SDS011;4316;53.840;10.762;2024-01-30T01:49:01;5.57;;;4.50;;
8556;SDS011;4316;53.840;10.762;2024-01-30T01:51:28;6.17;;;4.97;;
8556;SDS011;4316;53.840;10.762;2024-01-30T01:53:55;5.87;;;4.57;;
8556;SDS011;4316;53.840;10.762;2024-01-30T01:56:22;7.57;;;5.10;;
8556;SDS011;4316;53.840;10.762;2024-01-30T01:58:49;5.03;;;4.57;;
8556;SDS011;4316;53.840;10.762;2024-01-30T02:01:16;6.70;;;4.63;;
8556;SDS011;4316;53.840;10.762;2024-01-30T02:03:45;4.40;;;4.00;;
8556;SDS011;4316;53.840;10.762;2024-01-30T02:06:11;5.10;;;4.20;;
8556;SDS011;4316;53.840;10.762;2024-01-30T02:08:38;8.20;;;4.70;;
8556;SDS011;4316;53.840;10.762;2024-01-30T02:11:04;10.87;;;4.90;;
8556;SDS011;4316;53.840;10.762;2024-01-30T02:13:30;5.17;;;4.23;;
8556;SDS011;4316;53.840;10.762;2024-01-30T02:15:55;6.13;;;4.67;;
8556;SDS011;4316;53.840;10.762;2024-01-30T02:18:22;6.20;;;4.83;;
8556;SDS011;4316;53.840;10.762;2024-01-30T02:20:48;7.30;;;4.30;;
8556;SDS011;4316;53.840;10.762;2024-01-30T02:23:15;8.63;;;4.77;;
8556;SDS011;4316;53.840;10.762;2024-01-30T02:25:41;7.17;;;5.00;;
8556;SDS011;4316;53.840;10.762;2024-01-30T02:28:12;13.67;;;4.53;;
8556;SDS011;4316;53.840;10.762;2024-01-30T02:30:44;6.07;;;4.50;;
8556;SDS011;4316;53.840;10.762;2024-01-30T02:33:11;10.33;;;4.77;;
8556;SDS011;4316;53.840;10.762;2024-01-30T02:35:37;4.83;;;4.27;;
8556;SDS011;4316;53.840;10.762;2024-01-30T02:38:03;6.83;;;5.10;;
8556;SDS011;4316;53.840;10.762;2024-01-30T02:40:29;7.03;;;4.70;;
8556;SDS011;4316;53.840;10.762;2024-01-30T02:42:55;5.77;;;4.73;;
8556;SDS011;4316;53.840;10.762;2024-01-30T02:45:21;5.63;;;4.27;;
8556;SDS011;4316;53.840;10.762;2024-01-30T02:47:46;5.20;;;4.20;;
8556;SDS011;4316;53.840;10.762;2024-01-30T02:50:12;7.73;;;4.37;;
8556;SDS011;4316;53.840;10.762;2024-01-30T02:52:38;5.20;;;3.87;;
8556;SDS011;4316;53.840;10.762;2024-01-30T02:55:04;6.13;;;4.20;;
8556;SDS011;4316;53.840;10.762;2024-01-30T02:57:29;6.33;;;4.00;;
8556;SDS011;4316;53.840;10.762;2024-01-30T02:59:55;6.33;;;4.07;;
8556;SDS011;4316;53.840;10.762;2024-01-30T03:02:21;5.63;;;4.27;;
8556;SDS011;4316;53.840;10.762;2024-01-30T03:04:46;5.70;;;4.30;;
8556;SDS011;4316;53.840;10.762;2024-01-30T03:07:12;4.80;;;4.30;;
8556;SDS011;4316;53.840;10.762;2024-01-30T03:09:38;7.60;;;4.60;;
8556;SDS011;4316;53.840;10.762;2024-01-30T03:12:03;5.70;;;4.87;;
8556;SDS011;4316;53.840;10.762;2024-01-30T03:14:30;5.93;;;4.20;;
8556;SDS011;4316;53.840;10.762;2024-01-30T03:16:56;9.73;;;4.57;;
8556;SDS011;4316;53.840;10.762;2024-01-30T03:19:21;5.37;;;4.87;;
8556;SDS011;4316;53.840;10.762;2024-01-30T03:21:47;8.93;;;4.47;;
8556;SDS011;4316;53.840;10.762;2024-01-30T03:24:12;6.83;;;4.40;;
8556;SDS011;4316;53.840;10.762;2024-01-30T03:26:38;5.90;;;4.43;;
8556;SDS011;4316;53.840;10.762;2024-01-30T03:29:03;6.00;;;4.70;;
8556;SDS011;4316;53.840;10.762;2024-01-30T03:31:29;8.83;;;4.53;;
8556;SDS011;4316;53.840;10.762;2024-01-30T03:33:55;4.83;;;4.20;;
8556;SDS011;4316;53.840;10.762;2024-01-30T03:36:20;5.73;;;4.57;;
8556;SDS011;4316;53.840;10.762;2024-01-30T03:38:46;5.93;;;4.30;;
8556;SDS011;4316;53.840;10.762;2024-01-30T03:41:11;4.50;;;4.10;;
8556;SDS011;4316;53.840;10.762;2024-01-30T03:43:37;6.33;;;4.00;;
8556;SDS011;4316;53.840;10.762;2024-01-30T03:46:03;4.27;;;3.87;;
8556;SDS011;4316;53.840;10.762;2024-01-30T03:48:29;14.50;;;4.70;;
8556;SDS011;4316;53.840;10.762;2024-01-30T03:50:54;5.87;;;4.47;;
8556;SDS011;4316;53.840;10.762;2024-01-30T03:53:20;9.07;;;4.03;;
8556;SDS011;4316;53.840;10.762;2024-01-30T03:55:46;4.40;;;4.00;;
8556;SDS011;4316;53.840;10.762;2024-01-30T03:58:12;7.03;;;4.40;;
8556;SDS011;4316;53.840;10.762;2024-01-30T04:00:37;5.47;;;4.10;;
8556;SDS011;4316;53.840;10.762;2024-01-30T04:03:03;5.07;;;3.90;;
8556;SDS011;4316;53.840;10.762;2024-01-30T04:05:29;5.67;;;4.03;;
8556;SDS011;4316;53.840;10.762;2024-01-30T04:07:54;8.27;;;3.90;;
8556;SDS011;4316;53.840;10.762;2024-01-30T04:10:20;5.70;;;4.07;;
8556;SDS011;4316;53.840;10.762;2024-01-30T04:12:46;6.83;;;4.67;;
8556;SDS011;4316;53.840;10.762;2024-01-30T04:15:11;5.73;;;3.67;;
8556;SDS011;4316;53.840;10.762;2024-01-30T04:17:38;5.07;;;4.07;;
8556;SDS011;4316;53.840;10.762;2024-01-30T04:20:05;6.20;;;4.03;;
8556;SDS011;4316;53.840;10.762;2024-01-30T04:22:31;4.43;;;4.00;;
8556;SDS011;4316;53.840;10.762;2024-01-30T04:24:56;6.40;;;4.03;;
8556;SDS011;4316;53.840;10.762;2024-01-30T04:27:22;5.33;;;4.43;;
8556;SDS011;4316;53.840;10.762;2024-01-30T04:29:48;8.20;;;3.80;;
8556;SDS011;4316;53.840;10.762;2024-01-30T04:32:13;4.63;;;4.23;;
8556;SDS011;4316;53.840;10.762;2024-01-30T04:34:39;4.07;;;3.67;;
8556;SDS011;4316;53.840;10.762;2024-01-30T04:37:05;11.23;;;4.40;;
8556;SDS011;4316;53.840;10.762;2024-01-30T04:39:30;5.23;;;4.50;;
8556;SDS011;4316;53.840;10.762;2024-01-30T04:41:58;6.43;;;3.93;;
8556;SDS011;4316;53.840;10.762;2024-01-30T04:44:24;4.33;;;3.83;;
8556;SDS011;4316;53.840;10.762;2024-01-30T04:46:49;5.97;;;4.40;;
8556;SDS011;4316;53.840;10.762;2024-01-30T04:49:15;5.50;;;4.40;;
8556;SDS011;4316;53.840;10.762;2024-01-30T04:51:41;4.93;;;4.20;;
8556;SDS011;4316;53.840;10.762;2024-01-30T04:54:06;5.37;;;4.33;;
8556;SDS011;4316;53.840;10.762;2024-01-30T04:56:32;4.83;;;4.37;;
8556;SDS011;4316;53.840;10.762;2024-01-30T04:58:57;4.70;;;4.30;;
8556;SDS011;4316;53.840;10.762;2024-01-30T05:01:23;5.90;;;4.20;;
8556;SDS011;4316;53.840;10.762;2024-01-30T05:03:48;6.17;;;4.17;;
8556;SDS011;4316;53.840;10.762;2024-01-30T05:06:23;6.97;;;4.93;;
8556;SDS011;4316;53.840;10.762;2024-01-30T05:08:49;5.43;;;4.67;;
8556;SDS011;4316;53.840;10.762;2024-01-30T05:11:15;6.73;;;5.40;;
8556;SDS011;4316;53.840;10.762;2024-01-30T05:13:40;5.37;;;4.40;;
8556;SDS011;4316;53.840;10.762;2024-01-30T05:16:06;10.63;;;4.57;;
8556;SDS011;4316;53.840;10.762;2024-01-30T05:18:31;6.57;;;4.30;;
8556;SDS011;4316;53.840;10.762;2024-01-30T05:20:57;7.77;;;4.57;;
8556;SDS011;4316;53.840;10.762;2024-01-30T05:23:22;4.83;;;4.37;;
8556;SDS011;4316;53.840;10.762;2024-01-30T05:25:48;4.73;;;4.20;;
8556;SDS011;4316;53.840;10.762;2024-01-30T05:28:14;6.23;;;4.00;;
8556;SDS011;4316;53.840;10.762;2024-01-30T05:30:39;9.23;;;5.00;;
8556;SDS011;4316;53.840;10.762;2024-01-30T05:33:05;7.80;;;4.83;;
8556;SDS011;4316;53.840;10.762;2024-01-30T05:35:30;5.33;;;4.60;;
8556;SDS011;4316;53.840;10.762;2024-01-30T05:37:56;7.73;;;5.07;;
8556;SDS011;4316;53.840;10.762;2024-01-30T05:40:21;6.30;;;5.30;;
8556;SDS011;4316;53.840;10.762;2024-01-30T05:42:47;9.73;;;5.37;;
8556;SDS011;4316;53.840;10.762;2024-01-30T05:45:13;5.80;;;5.17;;
8556;SDS011;4316;53.840;10.762;2024-01-30T05:47:38;7.43;;;5.33;;
8556;SDS011;4316;53.840;10.762;2024-01-30T05:50:04;7.20;;;5.83;;
8556;SDS011;4316;53.840;10.762;2024-01-30T05:52:30;13.27;;;7.03;;
8556;SDS011;4316;53.840;10.762;2024-01-30T05:54:56;8.23;;;6.00;;
8556;SDS011;4316;53.840;10.762;2024-01-30T05:57:21;8.93;;;6.33;;
8556;SDS011;4316;53.840;10.762;2024-01-30T05:59:47;10.43;;;6.57;;
8556;SDS011;4316;53.840;10.762;2024-01-30T06:02:13;8.90;;;6.37;;
8556;SDS011;4316;53.840;10.762;2024-01-30T06:04:39;7.23;;;5.67;;
8556;SDS011;4316;53.840;10.762;2024-01-30T06:07:04;9.77;;;5.90;;
8556;SDS011;4316;53.840;10.762;2024-01-30T06:09:31;10.43;;;7.00;;
8556;SDS011;4316;53.840;10.762;2024-01-30T06:11:57;10.40;;;6.77;;
8556;SDS011;4316;53.840;10.762;2024-01-30T06:14:23;7.80;;;6.20;;
8556;SDS011;4316;53.840;10.762;2024-01-30T06:16:49;10.87;;;6.67;;
8556;SDS011;4316;53.840;10.762;2024-01-30T06:19:15;6.73;;;5.93;;
8556;SDS011;4316;53.840;10.762;2024-01-30T06:21:40;13.20;;;8.80;;
8556;SDS011;4316;53.840;10.762;2024-01-30T06:24:06;10.70;;;7.13;;
8556;SDS011;4316;53.840;10.762;2024-01-30T06:26:31;14.67;;;8.00;;
8556;SDS011;4316;53.840;10.762;2024-01-30T06:28:57;11.07;;;6.90;;
8556;SDS011;4316;53.840;10.762;2024-01-30T06:31:23;9.97;;;6.93;;
8556;SDS011;4316;53.840;10.762;2024-01-30T06:33:49;12.20;;;7.70;;
8556;SDS011;4316;53.840;10.762;2024-01-30T06:36:14;15.67;;;8.63;;
8556;SDS011;4316;53.840;10.762;2024-01-30T06:38:40;10.93;;;7.63;;
8556;SDS011;4316;53.840;10.762;2024-01-30T06:41:06;10.37;;;7.97;;
8556;SDS011;4316;53.840;10.762;2024-01-30T06:43:32;11.17;;;7.70;;
8556;SDS011;4316;53.840;10.762;2024-01-30T06:45:58;10.17;;;7.47;;
8556;SDS011;4316;53.840;10.762;2024-01-30T06:48:24;11.27;;;7.10;;
8556;SDS011;4316;53.840;10.762;2024-01-30T06:50:50;10.47;;;6.73;;
8556;SDS011;4316;53.840;10.762;2024-01-30T06:53:19;7.57;;;6.77;;
8556;SDS011;4316;53.840;10.762;2024-01-30T06:55:44;9.33;;;6.90;;
8556;SDS011;4316;53.840;10.762;2024-01-30T06:58:10;9.13;;;6.70;;
8556;SDS011;4316;53.840;10.762;2024-01-30T07:00:35;8.83;;;7.07;;
8556;SDS011;4316;53.840;10.762;2024-01-30T07:03:01;9.30;;;7.30;;
8556;SDS011;4316;53.840;10.762;2024-01-30T07:05:27;9.07;;;7.13;;
8556;SDS011;4316;53.840;10.762;2024-01-30T07:07:52;7.97;;;6.60;;
8556;SDS011;4316;53.840;10.762;2024-01-30T07:10:18;8.57;;;7.37;;
8556;SDS011;4316;53.840;10.762;2024-01-30T07:12:44;10.90;;;6.80;;
8556;SDS011;4316;53.840;10.762;2024-01-30T07:15:09;10.60;;;7.07;;
8556;SDS011;4316;53.840;10.762;2024-01-30T07:17:35;8.93;;;7.33;;
8556;SDS011;4316;53.840;10.762;2024-01-30T07:20:01;8.30;;;6.83;;
8556;SDS011;4316;53.840;10.762;2024-01-30T07:22:28;10.83;;;8.10;;
8556;SDS011;4316;53.840;10.762;2024-01-30T07:24:55;10.50;;;8.43;;
8556;SDS011;4316;53.840;10.762;2024-01-30T07:27:21;10.53;;;8.47;;
8556;SDS011;4316;53.840;10.762;2024-01-30T07:29:46;11.70;;;6.90;;
8556;SDS011;4316;53.840;10.762;2024-01-30T07:32:12;11.67;;;7.17;;
8556;SDS011;4316;53.840;10.762;2024-01-30T07:34:37;12.33;;;7.80;;
8556;SDS011;4316;53.840;10.762;2024-01-30T07:37:03;10.90;;;8.10;;
8556;SDS011;4316;53.840;10.762;2024-01-30T07:39:28;13.43;;;8.47;;
8556;SDS011;4316;53.840;10.762;2024-01-30T07:41:54;11.80;;;8.80;;
8556;SDS011;4316;53.840;10.762;2024-01-30T07:44:20;13.70;;;8.63;;
8556;SDS011;4316;53.840;10.762;2024-01-30T07:46:46;11.93;;;8.80;;
8556;SDS011;4316;53.840;10.762;2024-01-30T07:49:11;12.60;;;8.50;;
8556;SDS011;4316;53.840;10.762;2024-01-30T07:51:39;9.47;;;8.40;;
8556;SDS011;4316;53.840;10.762;2024-01-30T07:54:05;11.47;;;8.53;;
8556;SDS011;4316;53.840;10.762;2024-01-30T07:56:30;12.20;;;8.27;;
8556;SDS011;4316;53.840;10.762;2024-01-30T07:58:56;13.40;;;8.27;;
8556;SDS011;4316;53.840;10.762;2024-01-30T08:01:21;12.37;;;9.37;;
8556;SDS011;4316;53.840;10.762;2024-01-30T08:03:47;13.87;;;9.03;;
8556;SDS011;4316;53.840;10.762;2024-01-30T08:06:12;13.40;;;8.37;;
8556;SDS011;4316;53.840;10.762;2024-01-30T08:08:38;16.27;;;9.17;;
8556;SDS011;4316;53.840;10.762;2024-01-30T08:11:04;15.00;;;8.90;;
8556;SDS011;4316;53.840;10.762;2024-01-30T08:13:30;10.93;;;8.40;;
8556;SDS011;4316;53.840;10.762;2024-01-30T08:15:55;14.47;;;8.70;;
8556;SDS011;4316;53.840;10.762;2024-01-30T08:18:21;13.07;;;9.00;;
8556;SDS011;4316;53.840;10.762;2024-01-30T08:20:46;13.87;;;9.40;;
8556;SDS011;4316;53.840;10.762;2024-01-30T08:23:12;20.27;;;9.50;;
8556;SDS011;4316;53.840;10.762;2024-01-30T08:25:38;10.60;;;8.57;;
8556;SDS011;4316;53.840;10.762;2024-01-30T08:28:03;11.67;;;9.27;;
8556;SDS011;4316;53.840;10.762;2024-01-30T08:30:29;16.07;;;8.73;;
8556;SDS011;4316;53.840;10.762;2024-01-30T08:32:54;10.83;;;8.70;;
8556;SDS011;4316;53.840;10.762;2024-01-30T08:35:20;12.13;;;8.53;;
8556;SDS011;4316;53.840;10.762;2024-01-30T08:37:45;14.93;;;9.53;;
8556;SDS011;4316;53.840;10.762;2024-01-30T08:40:11;14.97;;;10.37;;
8556;SDS011;4316;53.840;10.762;2024-01-30T08:42:37;11.73;;;8.80;;
8556;SDS011;4316;53.840;10.762;2024-01-30T08:45:02;12.80;;;8.57;;
8556;SDS011;4316;53.840;10.762;2024-01-30T08:47:29;10.87;;;8.80;;
8556;SDS011;4316;53.840;10.762;2024-01-30T08:49:55;12.83;;;9.43;;
8556;SDS011;4316;53.840;10.762;2024-01-30T08:52:21;14.97;;;9.90;;
8556;SDS011;4316;53.840;10.762;2024-01-30T08:54:46;16.03;;;9.43;;
8556;SDS011;4316;53.840;10.762;2024-01-30T08:57:12;18.20;;;9.97;;
8556;SDS011;4316;53.840;10.762;2024-01-30T08:59:37;14.53;;;9.77;;
8556;SDS011;4316;53.840;10.762;2024-01-30T09:02:03;13.47;;;9.90;;
8556;SDS011;4316;53.840;10.762;2024-01-30T09:04:30;19.43;;;10.80;;
8556;SDS011;4316;53.840;10.762;2024-01-30T09:06:55;18.70;;;10.67;;
8556;SDS011;4316;53.840;10.762;2024-01-30T09:09:21;15.80;;;9.97;;
8556;SDS011;4316;53.840;10.762;2024-01-30T09:11:47;15.50;;;10.40;;
8556;SDS011;4316;53.840;10.762;2024-01-30T09:14:12;16.27;;;9.90;;
8556;SDS011;4316;53.840;10.762;2024-01-30T09:16:38;22.33;;;9.60;;
8556;SDS011;4316;53.840;10.762;2024-01-30T09:19:03;11.63;;;8.80;;
8556;SDS011;4316;53.840;10.762;2024-01-30T09:21:29;11.60;;;9.07;;
8556;SDS011;4316;53.840;10.762;2024-01-30T09:24:00;13.40;;;9.53;;
8556;SDS011;4316;53.840;10.762;2024-01-30T09:26:28;13.60;;;9.80;;
8556;SDS011;4316;53.840;10.762;2024-01-30T09:28:53;15.57;;;9.10;;
8556;SDS011;4316;53.840;10.762;2024-01-30T09:31:19;12.70;;;10.03;;
8556;SDS011;4316;53.840;10.762;2024-01-30T09:33:44;14.40;;;9.13;;
8556;SDS011;4316;53.840;10.762;2024-01-30T09:36:12;13.90;;;8.20;;
8556;SDS011;4316;53.840;10.762;2024-01-30T09:38:40;12.27;;;9.30;;
8556;SDS011;4316;53.840;10.762;2024-01-30T09:41:06;15.17;;;9.30;;
8556;SDS011;4316;53.840;10.762;2024-01-30T09:43:38;13.97;;;8.57;;
8556;SDS011;4316;53.840;10.762;2024-01-30T09:46:07;13.40;;;8.83;;
8556;SDS011;4316;53.840;10.762;2024-01-30T09:48:38;13.63;;;9.07;;
8556;SDS011;4316;53.840;10.762;2024-01-30T09:51:05;13.00;;;9.10;;
8556;SDS011;4316;53.840;10.762;2024-01-30T09:53:32;16.13;;;10.63;;
8556;SDS011;4316;53.840;10.762;2024-01-30T09:55:57;12.80;;;9.93;;
8556;SDS011;4316;53.840;10.762;2024-01-30T09:58:23;13.03;;;11.03;;
8556;SDS011;4316;53.840;10.762;2024-01-30T10:00:49;13.37;;;9.97;;
8556;SDS011;4316;53.840;10.762;2024-01-30T10:03:14;14.07;;;10.30;;
8556;SDS011;4316;53.840;10.762;2024-01-30T10:05:40;17.40;;;9.70;;
8556;SDS011;4316;53.840;10.762;2024-01-30T10:08:06;16.23;;;9.47;;
8556;SDS011;4316;53.840;10.762;2024-01-30T10:10:35;15.07;;;9.37;;
8556;SDS011;4316;53.840;10.762;2024-01-30T10:13:01;15.90;;;9.47;;
8556;SDS011;4316;53.840;10.762;2024-01-30T10:15:27;10.33;;;8.60;;
8556;SDS011;4316;53.840;10.762;2024-01-30T10:17:54;12.70;;;8.70;;
8556;SDS011;4316;53.840;10.762;2024-01-30T10:20:20;11.37;;;9.33;;
8556;SDS011;4316;53.840;10.762;2024-01-30T10:22:47;13.37;;;8.17;;
8556;SDS011;4316;53.840;10.762;2024-01-30T10:25:14;14.13;;;8.80;;
8556;SDS011;4316;53.840;10.762;2024-01-30T10:27:40;10.87;;;8.00;;
8556;SDS011;4316;53.840;10.762;2024-01-30T10:30:06;11.63;;;8.30;;
8556;SDS011;4316;53.840;10.762;2024-01-30T10:32:32;15.50;;;7.87;;
8556;SDS011;4316;53.840;10.762;2024-01-30T10:34:58;12.93;;;8.20;;
8556;SDS011;4316;53.840;10.762;2024-01-30T10:37:27;12.00;;;8.00;;
8556;SDS011;4316;53.840;10.762;2024-01-30T10:39:56;17.03;;;8.03;;
8556;SDS011;4316;53.840;10.762;2024-01-30T10:42:28;12.20;;;7.93;;
8556;SDS011;4316;53.840;10.762;2024-01-30T10:45:02;15.07;;;8.43;;
8556;SDS011;4316;53.840;10.762;2024-01-30T10:47:34;10.57;;;7.97;;
8556;SDS011;4316;53.840;10.762;2024-01-30T10:50:01;14.37;;;8.63;;
8556;SDS011;4316;53.840;10.762;2024-01-30T10:52:28;14.97;;;8.73;;
8556;SDS011;4316;53.840;10.762;2024-01-30T10:54:55;13.73;;;8.70;;
8556;SDS011;4316;53.840;10.762;2024-01-30T10:57:24;9.67;;;7.30;;
8556;SDS011;4316;53.840;10.762;2024-01-30T10:59:58;12.30;;;7.33;;
8556;SDS011;4316;53.840;10.762;2024-01-30T11:02:26;14.57;;;7.73;;
8556;SDS011;4316;53.840;10.762;2024-01-30T11:04:59;11.20;;;8.30;;
8556;SDS011;4316;53.840;10.762;2024-01-30T11:07:26;13.20;;;7.87;;
8556;SDS011;4316;53.840;10.762;2024-01-30T11:09:53;14.13;;;8.50;;
8556;SDS011;4316;53.840;10.762;2024-01-30T11:12:28;12.43;;;7.63;;
8556;SDS011;4316;53.840;10.762;2024-01-30T11:15:01;12.53;;;7.13;;
8556;SDS011;4316;53.840;10.762;2024-01-30T11:17:41;11.20;;;7.73;;
8556;SDS011;4316;53.840;10.762;2024-01-30T11:20:10;11.03;;;7.93;;
8556;SDS011;4316;53.840;10.762;2024-01-30T11:22:46;17.37;;;8.53;;
8556;SDS011;4316;53.840;10.762;2024-01-30T11:25:13;9.77;;;8.03;;
8556;SDS011;4316;53.840;10.762;2024-01-30T11:27:40;11.57;;;7.67;;
8556;SDS011;4316;53.840;10.762;2024-01-30T11:30:07;13.83;;;9.03;;
8556;SDS011;4316;53.840;10.762;2024-01-30T11:32:33;20.57;;;8.40;;
8556;SDS011;4316;53.840;10.762;2024-01-30T11:34:58;13.23;;;7.47;;
8556;SDS011;4316;53.840;10.762;2024-01-30T11:37:27;9.43;;;7.83;;
8556;SDS011;4316;53.840;10.762;2024-01-30T11:39:55;12.37;;;7.37;;
8556;SDS011;4316;53.840;10.762;2024-01-30T11:42:22;11.83;;;7.50;;
8556;SDS011;4316;53.840;10.762;2024-01-30T11:44:50;10.57;;;8.03;;
8556;SDS011;4316;53.840;10.762;2024-01-30T11:47:16;11.47;;;8.00;;
8556;SDS011;4316;53.840;10.762;2024-01-30T11:49:41;13.30;;;8.17;;
8556;SDS011;4316;53.840;10.762;2024-01-30T11:52:08;15.80;;;7.70;;
8556;SDS011;4316;53.840;10.762;2024-01-30T11:54:34;9.67;;;7.87;;
8556;SDS011;4316;53.840;10.762;2024-01-30T11:57:00;8.90;;;7.43;;
8556;SDS011;4316;53.840;10.762;2024-01-30T11:59:26;15.03;;;8.50;;
8556;SDS011;4316;53.840;10.762;2024-01-30T12:01:51;20.23;;;7.67;;
8556;SDS011;4316;53.840;10.762;2024-01-30T12:04:17;12.70;;;7.23;;
8556;SDS011;4316;53.840;10.762;2024-01-30T12:06:43;11.10;;;7.60;;
8556;SDS011;4316;53.840;10.762;2024-01-30T12:09:09;13.07;;;7.80;;
8556;SDS011;4316;53.840;10.762;2024-01-30T12:11:43;10.17;;;7.93;;
8556;SDS011;4316;53.840;10.762;2024-01-30T12:14:10;10.23;;;7.90;;
8556;SDS011;4316;53.840;10.762;2024-01-30T12:16:36;13.17;;;8.30;;
8556;SDS011;4316;53.840;10.762;2024-01-30T12:19:02;15.33;;;7.57;;
8556;SDS011;4316;53.840;10.762;2024-01-30T12:21:28;12.87;;;7.30;;
8556;SDS011;4316;53.840;10.762;2024-01-30T12:23:54;10.13;;;7.30;;
8556;SDS011;4316;53.840;10.762;2024-01-30T12:26:20;16.80;;;7.40;;
8556;SDS011;4316;53.840;10.762;2024-01-30T12:28:49;8.77;;;7.13;;
8556;SDS011;4316;53.840;10.762;2024-01-30T12:31:15;11.13;;;7.50;;
8556;SDS011;4316;53.840;10.762;2024-01-30T12:33:41;12.33;;;7.73;;
8556;SDS011;4316;53.840;10.762;2024-01-30T12:36:07;9.43;;;7.27;;
8556;SDS011;4316;53.840;10.762;2024-01-30T12:38:32;7.53;;;6.43;;
8556;SDS011;4316;53.840;10.762;2024-01-30T12:40:58;9.50;;;7.17;;
8556;SDS011;4316;53.840;10.762;2024-01-30T12:43:24;10.23;;;7.40;;
8556;SDS011;4316;53.840;10.762;2024-01-30T12:45:52;11.63;;;7.30;;
8556;SDS011;4316;53.840;10.762;2024-01-30T12:48:17;11.77;;;8.43;;
8556;SDS011;4316;53.840;10.762;2024-01-30T12:50:43;9.47;;;6.70;;
8556;SDS011;4316;53.840;10.762;2024-01-30T12:53:09;8.57;;;7.20;;
8556;SDS011;4316;53.840;10.762;2024-01-30T12:55:35;8.53;;;7.30;;
8556;SDS011;4316;53.840;10.762;2024-01-30T12:58:00;8.53;;;7.27;;
8556;SDS011;4316;53.840;10.762;2024-01-30T13:00:26;8.90;;;7.17;;
8556;SDS011;4316;53.840;10.762;2024-01-30T13:02:52;10.70;;;7.30;;
8556;SDS011;4316;53.840;10.762;2024-01-30T13:05:17;7.63;;;6.70;;
8556;SDS011;4316;53.840;10.762;2024-01-30T13:07:43;13.57;;;7.30;;
8556;SDS011;4316;53.840;10.762;2024-01-30T13:10:09;10.50;;;6.70;;
8556;SDS011;4316;53.840;10.762;2024-01-30T13:12:34;15.30;;;6.73;;
8556;SDS011;4316;53.840;10.762;2024-01-30T13:15:01;14.67;;;6.97;;
8556;SDS011;4316;53.840;10.762;2024-01-30T13:17:27;10.73;;;6.73;;
8556;SDS011;4316;53.840;10.762;2024-01-30T13:19:53;10.73;;;6.97;;
8556;SDS011;4316;53.840;10.762;2024-01-30T13:22:19;8.70;;;6.93;;
8556;SDS011;4316;53.840;10.762;2024-01-30T13:24:48;8.60;;;7.10;;
8556;SDS011;4316;53.840;10.762;2024-01-30T13:27:14;8.80;;;7.70;;
8556;SDS011;4316;53.840;10.762;2024-01-30T13:29:40;12.80;;;8.63;;
8556;SDS011;4316;53.840;10.762;2024-01-30T13:32:05;10.17;;;7.97;;
8556;SDS011;4316;53.840;10.762;2024-01-30T13:34:31;12.43;;;7.80;;
8556;SDS011;4316;53.840;10.762;2024-01-30T13:36:57;10.70;;;7.80;;
8556;SDS011;4316;53.840;10.762;2024-01-30T13:39:22;9.93;;;7.87;;
8556;SDS011;4316;53.840;10.762;2024-01-30T13:41:48;10.27;;;7.37;;
8556;SDS011;4316;53.840;10.762;2024-01-30T13:44:15;9.43;;;7.13;;
8556;SDS011;4316;53.840;10.762;2024-01-30T13:46:42;16.83;;;7.00;;
8556;SDS011;4316;53.840;10.762;2024-01-30T13:49:08;12.67;;;7.23;;
8556;SDS011;4316;53.840;10.762;2024-01-30T13:51:33;9.37;;;5.90;;
8556;SDS011;4316;53.840;10.762;2024-01-30T13:53:59;11.43;;;6.33;;
8556;SDS011;4316;53.840;10.762;2024-01-30T13:56:25;11.17;;;7.23;;
8556;SDS011;4316;53.840;10.762;2024-01-30T13:58:51;13.07;;;6.57;;
8556;SDS011;4316;53.840;10.762;2024-01-30T14:01:18;12.83;;;7.70;;
8556;SDS011;4316;53.840;10.762;2024-01-30T14:03:44;9.73;;;6.53;;
8556;SDS011;4316;53.840;10.762;2024-01-30T14:06:10;12.27;;;6.50;;
8556;SDS011;4316;53.840;10.762;2024-01-30T14:08:36;15.13;;;7.57;;
8556;SDS011;4316;53.840;10.762;2024-01-30T14:11:02;9.63;;;7.00;;
8556;SDS011;4316;53.840;10.762;2024-01-30T14:13:28;8.60;;;7.30;;
8556;SDS011;4316;53.840;10.762;2024-01-30T14:15:55;12.77;;;6.87;;
8556;SDS011;4316;53.840;10.762;2024-01-30T14:18:21;12.77;;;7.23;;
8556;SDS011;4316;53.840;10.762;2024-01-30T14:20:47;9.17;;;6.83;;
8556;SDS011;4316;53.840;10.762;2024-01-30T14:23:12;10.23;;;8.03;;
8556;SDS011;4316;53.840;10.762;2024-01-30T14:25:38;11.20;;;7.17;;
8556;SDS011;4316;53.840;10.762;2024-01-30T14:28:04;16.63;;;8.10;;
8556;SDS011;4316;53.840;10.762;2024-01-30T14:30:30;13.30;;;7.00;;
8556;SDS011;4316;53.840;10.762;2024-01-30T14:32:55;12.93;;;7.17;;
8556;SDS011;4316;53.840;10.762;2024-01-30T14:35:21;10.80;;;6.30;;
8556;SDS011;4316;53.840;10.762;2024-01-30T14:37:46;12.43;;;7.27;;
8556;SDS011;4316;53.840;10.762;2024-01-30T14:40:12;13.93;;;5.77;;
8556;SDS011;4316;53.840;10.762;2024-01-30T14:42:38;13.33;;;6.80;;
8556;SDS011;4316;53.840;10.762;2024-01-30T14:45:04;8.40;;;6.37;;
8556;SDS011;4316;53.840;10.762;2024-01-30T14:47:31;8.33;;;6.17;;
8556;SDS011;4316;53.840;10.762;2024-01-30T14:49:57;13.33;;;6.47;;